Time;durP1;ratioP1;P1;durP2;ratioP2;P2;SDS_P1;SDS_P2;PMS_P1;PMS_P2;Temp;Humidity;BMP_temperature;BMP_pressure;BME280_temperature;BME280_humidity;BME280_pressure;Samples;Min_cycle;Max_cycle;Signal;HPM_P1;HPM_P2
2023/03/09 00:00:59;;;;;;;11.35;9.90;;;;;;;0.73;100.00;98977.75;5094601;28;20058;-65
2023/03/09 00:03:27;;;;;;;10.88;9.48;;;;;;;0.81;100.00;98974.63;5098188;28;20395;-66
2023/03/09 00:05:59;;;;;;;11.13;9.20;;;;;;;0.91;100.00;98967.75;5111794;28;20138;-64
2023/03/09 00:08:29;;;;;;;11.13;9.30;;;;;;;0.93;100.00;98976.38;5115753;28;20048;-65
2023/03/09 00:10:57;;;;;;;11.25;9.48;;;;;;;0.90;100.00;98971.53;5106189;27;20074;-65
2023/03/09 00:13:25;;;;;;;12.40;9.82;;;;;;;0.85;100.00;98961.53;5097229;28;20050;-66
2023/03/09 00:15:53;;;;;;;11.27;9.70;;;;;;;0.82;100.00;98954.81;5097112;28;20040;-65
2023/03/09 00:18:21;;;;;;;11.45;9.90;;;;;;;0.84;100.00;98941.97;5096343;28;20551;-65
2023/03/09 00:20:49;;;;;;;11.70;9.80;;;;;;;0.91;100.00;98940.94;5101759;27;20410;-64
2023/03/09 00:23:19;;;;;;;11.80;10.05;;;;;;;1.04;100.00;98962.03;5115289;28;20046;-65
2023/03/09 00:25:46;;;;;;;12.18;10.48;;;;;;;1.00;100.00;98977.78;5097001;28;20483;-65
2023/03/09 00:28:14;;;;;;;11.82;10.38;;;;;;;0.92;100.00;98977.44;5098846;28;20459;-65
2023/03/09 00:30:42;;;;;;;12.13;10.10;;;;;;;0.88;100.00;98981.69;5114769;27;20088;-65
2023/03/09 00:33:10;;;;;;;13.45;11.35;;;;;;;0.82;100.00;98970.91;5065604;28;20091;-65
2023/03/09 00:35:38;;;;;;;12.98;11.48;;;;;;;0.81;100.00;98971.13;5096172;28;20043;-65
2023/03/09 00:38:06;;;;;;;14.05;11.32;;;;;;;0.73;100.00;98980.44;5094905;28;20040;-64
2023/03/09 00:40:34;;;;;;;12.40;10.77;;;;;;;0.75;100.00;98978.31;5095144;28;20044;-64
2023/03/09 00:43:01;;;;;;;12.93;11.23;;;;;;;0.72;100.00;98986.88;5109292;28;20440;-66
2023/03/09 00:45:29;;;;;;;12.95;11.52;;;;;;;0.72;100.00;98997.59;5114714;28;20043;-65
2023/03/09 00:47:57;;;;;;;13.68;12.07;;;;;;;0.73;100.00;99012.59;5115256;28;20050;-65
2023/03/09 00:50:24;;;;;;;13.30;11.90;;;;;;;0.63;100.00;99007.91;5116665;28;20420;-66
2023/03/09 00:52:52;;;;;;;13.10;11.70;;;;;;;0.73;100.00;98999.19;5116257;28;20063;-65
2023/03/09 00:55:19;;;;;;;14.50;13.00;;;;;;;0.76;100.00;99022.81;5112968;28;20047;-66
2023/03/09 00:57:47;;;;;;;13.63;12.07;;;;;;;0.70;100.00;99014.94;5114900;28;20093;-65
2023/03/09 01:00:16;;;;;;;13.45;11.88;;;;;;;0.73;100.00;99012.59;5115153;28;20048;-65
2023/03/09 01:02:43;;;;;;;13.40;11.73;;;;;;;0.80;100.00;99020.47;5115622;27;20127;-65
2023/03/09 01:05:11;;;;;;;13.18;11.23;;;;;;;0.80;100.00;99025.81;5114490;28;20454;-65
2023/03/09 01:07:40;;;;;;;13.80;12.38;;;;;;;0.73;100.00;99026.00;5067036;28;20055;-65
2023/03/09 01:10:11;;;;;;;15.48;11.05;;;;;;;0.74;100.00;99026.81;5094433;28;20151;-64
2023/03/09 01:12:39;;;;;;;13.73;11.80;;;;;;;0.78;100.00;99030.63;5109031;27;20223;-66
2023/03/09 01:15:07;;;;;;;12.55;11.07;;;;;;;0.75;100.00;99044.53;5113210;28;20045;-65
2023/03/09 01:17:35;;;;;;;13.48;12.02;;;;;;;0.69;100.00;99061.56;5103444;28;20068;-66
2023/03/09 01:20:04;;;;;;;14.15;12.65;;;;;;;0.72;100.00;99056.56;5094339;27;20051;-65
2023/03/09 01:22:31;;;;;;;12.85;11.43;;;;;;;0.74;100.00;99059.78;5077397;28;20040;-65
2023/03/09 01:24:59;;;;;;;13.35;11.35;;;;;;;0.65;100.00;99061.28;5093845;28;20052;-65
2023/03/09 01:27:28;;;;;;;13.68;11.98;;;;;;;0.64;100.00;99062.31;5106918;28;20071;-66
2023/03/09 01:29:58;;;;;;;15.23;12.60;;;;;;;0.62;100.00;99061.75;5116128;28;20047;-64
2023/03/09 01:32:26;;;;;;;13.57;12.15;;;;;;;0.65;100.00;99058.59;5126029;28;20063;-63
2023/03/09 01:34:54;;;;;;;13.32;11.93;;;;;;;0.72;100.00;99061.06;5129852;28;20073;-61
2023/03/09 01:37:21;;;;;;;13.57;12.05;;;;;;;0.70;100.00;99072.06;5080875;28;20173;-65
2023/03/09 01:39:49;;;;;;;15.32;12.45;;;;;;;0.71;100.00;99065.63;5117400;28;20048;-62
2023/03/09 01:42:17;;;;;;;14.77;12.90;;;;;;;0.70;100.00;99069.38;5114773;28;20135;-60
2023/03/09 01:44:44;;;;;;;14.60;13.10;;;;;;;0.70;100.00;99076.59;5105468;28;20081;-64
2023/03/09 01:47:12;;;;;;;14.63;12.43;;;;;;;0.71;100.00;99078.22;5094712;28;20043;-66
2023/03/09 01:49:48;;;;;;;14.52;13.02;;;;;;;0.79;100.00;99080.47;5095669;28;20127;-65
2023/03/09 01:52:26;;;;;;;14.32;12.80;;;;;;;0.78;100.00;99082.34;5095040;28;20388;-64
2023/03/09 01:55:04;;;;;;;15.07;13.48;;;;;;;0.75;100.00;99079.38;5082604;28;20040;-64
2023/03/09 01:57:36;;;;;;;15.73;13.85;;;;;;;0.77;100.00;99098.66;5087005;28;20101;-64
2023/03/09 02:00:09;;;;;;;15.57;12.88;;;;;;;0.85;100.00;99104.44;5077906;28;20044;-65
2023/03/09 02:02:49;;;;;;;15.43;13.48;;;;;;;0.88;100.00;99103.13;5095129;28;20043;-66
2023/03/09 02:05:57;;;;;;;15.77;14.07;;;;;;;0.90;100.00;99097.53;5083160;28;20039;-66
2023/03/09 02:08:27;;;;;;;15.98;14.27;;;;;;;0.94;100.00;99117.41;5054143;28;20051;-65
2023/03/09 02:11:08;;;;;;;16.40;14.63;;;;;;;0.90;100.00;99114.44;5097747;28;20052;-65
2023/03/09 02:13:42;;;;;;;17.13;15.32;;;;;;;0.88;100.00;99119.22;5108425;28;20043;-64
2023/03/09 02:16:09;;;;;;;16.50;14.57;;;;;;;0.83;100.00;99108.41;5105780;27;20054;-66
2023/03/09 02:18:38;;;;;;;17.33;15.48;;;;;;;0.90;100.00;99121.66;5100513;28;20044;-66
2023/03/09 02:21:25;;;;;;;18.05;16.10;;;;;;;0.94;100.00;99128.97;5111882;28;20047;-65
2023/03/09 02:24:11;;;;;;;;;;;;;;;0.96;100.00;99136.75;5113090;28;20048;-64
2023/03/09 02:26:46;;;;;;;17.33;15.18;;;;;;;1.00;100.00;99135.22;5105080;27;19959;-65
2023/03/09 02:29:16;;;;;;;17.33;15.52;;;;;;;1.05;100.00;99129.91;5094816;28;20040;-65
2023/03/09 02:31:43;;;;;;;17.45;15.43;;;;;;;1.12;100.00;99143.16;5107319;28;20494;-66
2023/03/09 02:34:12;;;;;;;18.27;16.25;;;;;;;1.14;100.00;99147.22;5113397;28;20044;-67
2023/03/09 02:36:42;;;;;;;18.92;17.02;;;;;;;1.13;100.00;99159.00;5114377;27;20035;-67
2023/03/09 02:39:29;;;;;;;18.85;16.83;;;;;;;1.13;100.00;99169.72;5107640;28;20056;-65
2023/03/09 02:41:58;;;;;;;19.48;17.38;;;;;;;1.17;100.00;99173.53;5077299;28;20040;-64
2023/03/09 02:44:27;;;;;;;19.45;17.35;;;;;;;1.21;100.00;99169.31;5079626;28;20083;-64
2023/03/09 02:46:55;;;;;;;19.30;17.13;;;;;;;1.18;100.00;99153.72;5093539;28;20044;-65
2023/03/09 02:49:23;;;;;;;21.60;18.38;;;;;;;1.12;100.00;99145.84;5113223;28;20047;-65
2023/03/09 02:51:54;;;;;;;20.25;17.95;;;;;;;1.03;100.00;99161.53;5112321;28;20051;-65
2023/03/09 02:54:22;;;;;;;19.70;17.60;;;;;;;0.92;100.00;99162.44;5112198;28;20051;-67
2023/03/09 02:56:50;;;;;;;21.45;19.15;;;;;;;0.90;100.00;99164.56;5092615;28;20101;-64
2023/03/09 02:59:17;;;;;;;20.48;17.98;;;;;;;0.90;100.00;99165.38;5076181;28;20511;-66
2023/03/09 03:01:45;;;;;;;20.70;18.50;;;;;;;0.91;100.00;99166.19;5093991;28;20050;-65
2023/03/09 03:04:13;;;;;;;20.42;18.23;;;;;;;0.92;100.00;99167.81;5103590;28;20172;-66
2023/03/09 03:06:40;;;;;;;20.73;18.58;;;;;;;0.95;100.00;99172.69;5110829;28;20055;-65
2023/03/09 03:09:10;;;;;;;21.77;19.48;;;;;;;0.97;100.00;99165.19;5094411;28;20059;-65
2023/03/09 03:11:38;;;;;;;22.92;20.52;;;;;;;0.96;100.00;99176.97;5104395;28;20054;-65
2023/03/09 03:14:05;;;;;;;22.05;19.75;;;;;;;0.96;100.00;99166.25;5104155;28;20139;-65
2023/03/09 03:16:36;;;;;;;21.63;19.30;;;;;;;0.90;100.00;99175.28;5091934;28;20040;-65
2023/03/09 03:19:05;;;;;;;21.67;19.38;;;;;;;0.83;100.00;99184.28;5092398;28;20048;-65
2023/03/09 03:21:36;;;;;;;23.13;20.73;;;;;;;0.90;100.00;99184.13;5099586;28;20036;-65
2023/03/09 03:24:05;;;;;;;24.35;21.02;;;;;;;0.93;100.00;99190.88;5085152;28;20039;-65
2023/03/09 03:26:35;;;;;;;23.65;20.73;;;;;;;0.85;100.00;99192.09;5092386;28;20040;-65
2023/03/09 03:29:07;;;;;;;22.42;20.10;;;;;;;0.87;100.00;99203.41;5092365;28;20407;-65
2023/03/09 03:31:35;;;;;;;25.38;22.65;;;;;;;0.83;100.00;99197.69;5093317;28;20566;-65
2023/03/09 03:34:03;;;;;;;25.40;22.60;;;;;;;0.78;100.00;99200.31;5076846;28;20105;-65
2023/03/09 03:36:36;;;;;;;26.13;23.33;;;;;;;0.78;100.00;99202.97;5093943;28;20043;-65
2023/03/09 03:39:05;;;;;;;26.20;23.02;;;;;;;0.79;100.00;99201.91;5075612;28;20040;-66
2023/03/09 03:41:32;;;;;;;28.52;23.80;;;;;;;0.91;100.00;99201.03;5075388;28;20048;-65
2023/03/09 03:44:05;;;;;;;27.83;24.35;;;;;;;0.96;100.00;99217.19;5097587;28;20091;-64
2023/03/09 03:46:35;;;;;;;27.75;24.20;;;;;;;1.03;100.00;99228.56;5115803;27;20082;-64
2023/03/09 03:49:03;;;;;;;28.58;25.02;;;;;;;1.02;100.00;99240.38;5116044;28;20047;-64
2023/03/09 03:51:34;;;;;;;30.52;26.35;;;;;;;1.00;100.00;99231.75;5116447;28;20043;-65
2023/03/09 03:54:02;;;;;;;31.00;26.98;;;;;;;0.89;100.00;99233.47;5100171;28;20055;-65
2023/03/09 03:56:30;;;;;;;30.42;26.52;;;;;;;0.87;100.00;99240.94;5106146;27;20495;-64
2023/03/09 03:59:00;;;;;;;30.88;27.05;;;;;;;0.85;100.00;99235.00;5099581;28;20075;-64
2023/03/09 04:01:29;;;;;;;32.00;27.13;;;;;;;0.84;100.00;99239.56;5116653;28;20050;-65
2023/03/09 04:04:03;;;;;;;32.83;27.20;;;;;;;0.87;100.00;99248.16;5114843;28;20120;-65
2023/03/09 04:06:35;;;;;;;31.65;27.38;;;;;;;0.87;100.00;99257.03;5079077;28;20085;-65
2023/03/09 04:09:04;;;;;;;32.60;27.40;;;;;;;0.81;100.00;99256.09;5116474;28;20047;-65
2023/03/09 04:11:33;;;;;;;31.48;27.48;;;;;;;0.78;100.00;99258.47;5095543;28;20502;-65
2023/03/09 04:14:01;;;;;;;29.70;26.23;;;;;;;0.76;100.00;99260.59;5114973;28;20051;-65
2023/03/09 04:16:29;;;;;;;32.20;27.10;;;;;;;0.88;100.00;99252.47;5113953;27;20036;-66
2023/03/09 04:18:58;;;;;;;34.58;27.75;;;;;;;0.89;100.00;99264.81;5115502;28;20035;-65
2023/03/09 04:21:26;;;;;;;29.58;25.02;;;;;;;0.87;100.00;99278.47;5099098;28;20040;-67
2023/03/09 04:23:53;;;;;;;34.13;27.38;;;;;;;0.91;100.00;99284.16;5096705;28;20472;-66
2023/03/09 04:26:22;;;;;;;31.15;25.95;;;;;;;0.91;100.00;99294.88;5081621;28;20036;-66
2023/03/09 04:28:59;;;;;;;30.55;25.40;;;;;;;0.94;100.00;99292.53;5084302;28;20048;-67
2023/03/09 04:31:27;;;;;;;36.58;26.17;;;;;;;0.96;100.00;99295.78;5095265;28;20052;-66
2023/03/09 04:33:55;;;;;;;32.35;26.33;;;;;;;1.00;100.00;99293.44;5094967;28;20083;-64
2023/03/09 04:36:23;;;;;;;30.75;25.70;;;;;;;0.99;100.00;99292.63;5077431;28;20047;-65
2023/03/09 04:38:52;;;;;;;33.72;27.70;;;;;;;0.99;100.00;99307.91;5108259;27;20051;-64
2023/03/09 04:41:22;;;;;;;33.90;26.80;;;;;;;0.94;100.00;99305.94;5098836;28;20059;-65
2023/03/09 04:43:56;;;;;;;29.73;25.92;;;;;;;0.90;100.00;99301.31;5077737;28;20052;-64
2023/03/09 04:46:23;;;;;;;29.98;25.27;;;;;;;0.79;100.00;99303.78;5108956;28;20040;-66
2023/03/09 04:48:54;;;;;;;30.58;26.38;;;;;;;0.78;100.00;99304.03;5088695;28;20093;-64
2023/03/09 04:51:22;;;;;;;29.15;25.52;;;;;;;0.74;100.00;99301.03;5116418;28;20052;-65
2023/03/09 04:53:52;;;;;;;32.47;26.40;;;;;;;0.72;100.00;99302.31;5097570;28;20438;-65
2023/03/09 04:56:23;;;;;;;30.80;25.40;;;;;;;0.68;100.00;99296.63;5112999;28;20044;-64
2023/03/09 04:58:55;;;;;;;29.83;24.65;;;;;;;0.75;100.00;99307.22;5104876;27;20048;-67
2023/03/09 05:01:25;;;;;;;28.90;25.10;;;;;;;0.75;100.00;99323.31;5091941;28;20048;-65
2023/03/09 05:03:55;;;;;;;31.17;24.80;;;;;;;0.74;100.00;99327.81;5113296;28;20043;-64
2023/03/09 05:06:24;;;;;;;28.33;23.60;;;;;;;0.73;100.00;99342.28;5112734;28;20134;-64
2023/03/09 05:08:53;;;;;;;27.13;23.42;;;;;;;0.74;100.00;99338.56;5060247;28;20051;-65
2023/03/09 05:11:52;;;;;;;27.60;23.35;;;;;;;0.80;100.00;99332.25;5093251;28;20055;-65
2023/03/09 05:14:22;;;;;;;27.58;23.38;;;;;;;0.83;100.00;99334.44;5093482;28;20044;-66
2023/03/09 05:16:51;;;;;;;28.77;23.98;;;;;;;0.88;100.00;99340.94;5098163;28;20089;-65
2023/03/09 05:19:22;;;;;;;27.45;23.42;;;;;;;0.84;100.00;99354.84;5069940;28;20068;-65
2023/03/09 05:21:54;;;;;;;28.33;24.42;;;;;;;0.82;100.00;99356.94;5077470;28;20134;-66
2023/03/09 05:24:22;;;;;;;28.10;23.23;;;;;;;0.79;100.00;99354.72;5094399;28;20142;-65
2023/03/09 05:26:51;;;;;;;28.15;23.92;;;;;;;0.78;100.00;99350.44;5078270;27;20040;-65
2023/03/09 05:29:21;;;;;;;28.05;24.48;;;;;;;0.82;100.00;99354.28;5107722;28;20053;-61
2023/03/09 05:31:49;;;;;;;28.80;24.42;;;;;;;0.86;100.00;99359.94;5125135;28;20078;-64
2023/03/09 05:34:17;;;;;;;29.38;24.08;;;;;;;0.82;100.00;99346.22;5100535;28;20078;-66
2023/03/09 05:36:45;;;;;;;28.40;24.38;;;;;;;0.79;100.00;99344.00;5117906;28;20048;-64
2023/03/09 05:39:18;;;;;;;26.85;22.70;;;;;;;0.85;100.00;99344.94;5113201;27;20044;-65
2023/03/09 05:41:47;;;;;;;28.02;24.27;;;;;;;0.89;100.00;99339.88;5099247;28;20052;-64
2023/03/09 05:44:28;;;;;;;26.85;22.83;;;;;;;0.89;100.00;99339.88;5093294;28;20052;-65
2023/03/09 05:46:56;;;;;;;30.00;25.20;;;;;;;0.89;100.00;99348.75;5094635;28;20055;-64
2023/03/09 05:49:27;;;;;;;25.48;22.20;;;;;;;0.90;100.00;99336.16;5105971;27;20460;-65
2023/03/09 05:51:55;;;;;;;26.80;23.25;;;;;;;0.92;100.00;99339.41;5077224;28;20048;-65
2023/03/09 05:54:23;;;;;;;27.80;22.42;;;;;;;0.83;100.00;99353.19;5092998;28;20065;-65
2023/03/09 05:56:54;;;;;;;27.08;23.55;;;;;;;0.83;100.00;99341.66;5093555;28;20399;-65
2023/03/09 05:59:22;;;;;;;26.85;22.92;;;;;;;0.90;100.00;99347.69;5100414;27;20100;-65
2023/03/09 06:01:50;;;;;;;27.23;22.55;;;;;;;0.97;100.00;99351.03;5062556;28;20113;-65
2023/03/09 06:04:22;;;;;;;25.48;22.30;;;;;;;1.03;100.00;99349.25;5093470;28;20059;-65
2023/03/09 06:06:54;;;;;;;29.60;24.45;;;;;;;1.02;100.00;99374.47;5097793;28;20043;-65
2023/03/09 06:09:27;;;;;;;27.08;22.38;;;;;;;0.97;100.00;99374.38;5111316;27;20046;-65
2023/03/09 06:11:56;;;;;;;24.92;21.25;;;;;;;0.98;100.00;99376.78;5096343;28;20047;-65
2023/03/09 06:14:24;;;;;;;30.38;24.73;;;;;;;0.96;100.00;99384.28;5113153;28;20552;-65
2023/03/09 06:16:53;;;;;;;27.65;23.20;;;;;;;0.95;100.00;99381.84;5112928;28;20054;-66
2023/03/09 06:19:20;;;;;;;28.35;23.70;;;;;;;0.96;100.00;99383.44;5095859;28;20044;-68
2023/03/09 06:21:51;;;;;;;29.58;23.25;;;;;;;0.93;100.00;99394.66;5108933;27;20488;-66
2023/03/09 06:24:19;;;;;;;27.15;22.83;;;;;;;0.91;100.00;99397.56;5096251;28;20043;-65
2023/03/09 06:26:47;;;;;;;27.35;22.48;;;;;;;0.98;100.00;99402.81;5096447;28;20067;-65
2023/03/09 06:29:18;;;;;;;28.15;23.45;;;;;;;1.00;100.00;99404.19;5112997;28;20048;-66
2023/03/09 06:31:48;;;;;;;26.95;22.83;;;;;;;1.06;100.00;99415.84;5075204;28;20138;-67
2023/03/09 06:34:19;;;;;;;27.73;22.83;;;;;;;1.10;100.00;99422.34;5092578;28;20058;-66
2023/03/09 06:36:47;;;;;;;27.63;23.80;;;;;;;1.13;100.00;99426.41;5092698;28;20064;-66
2023/03/09 06:39:20;;;;;;;29.00;25.80;;;;;;;1.14;100.00;99436.91;5076683;28;20065;-65
2023/03/09 06:41:49;;;;;;;31.63;28.25;;;;;;;1.10;100.00;99448.34;5098854;28;20048;-66
2023/03/09 06:44:30;;;;;;;32.15;27.92;;;;;;;0.99;100.00;99437.44;5107648;28;20055;-65
2023/03/09 06:46:59;;;;;;;32.33;28.40;;;;;;;0.95;100.00;99441.63;5115816;28;20048;-64
2023/03/09 06:49:29;;;;;;;30.70;25.80;;;;;;;0.95;100.00;99451.56;5103479;28;20142;-66
2023/03/09 06:51:59;;;;;;;33.47;25.20;;;;;;;0.91;100.00;99453.06;4724749;28;10000086;-66
2023/03/09 06:54:27;;;;;;;32.03;25.25;;;;;;;0.91;100.00;99445.03;5088711;28;20055;-65
2023/03/09 06:57:04;;;;;;;31.33;25.70;;;;;;;0.95;100.00;99435.47;5088710;28;20044;-66
2023/03/09 06:59:32;;;;;;;31.67;25.92;;;;;;;0.92;100.00;99450.16;5095097;28;20047;-65
2023/03/09 07:02:00;;;;;;;33.25;24.42;;;;;;;0.94;100.00;99466.84;5091003;28;20134;-68
2023/03/09 07:04:28;;;;;;;28.95;24.25;;;;;;;0.99;100.00;99482.22;5073446;28;20043;-66
2023/03/09 07:06:56;;;;;;;29.83;24.80;;;;;;;1.04;100.00;99498.41;5090475;28;20097;-66
2023/03/09 07:09:24;;;;;;;28.85;23.02;;;;;;;1.09;100.00;99493.13;5090115;28;20036;-64
2023/03/09 07:11:53;;;;;;;30.42;24.30;;;;;;;1.13;100.00;99496.97;5111009;28;20091;-65
2023/03/09 07:14:21;;;;;;;28.70;23.20;;;;;;;1.14;100.00;99498.59;5098184;28;20052;-66
2023/03/09 07:16:52;;;;;;;32.33;24.65;;;;;;;1.15;100.00;99497.53;5088817;28;20504;-65
2023/03/09 07:19:21;;;;;;;29.25;24.30;;;;;;;1.13;100.00;99505.03;5094122;27;20052;-65
2023/03/09 07:21:49;;;;;;;29.83;24.10;;;;;;;1.09;100.00;99528.00;5092748;28;20054;-66
2023/03/09 07:24:17;;;;;;;29.83;24.40;;;;;;;1.11;100.00;99533.13;5101039;28;20078;-66
2023/03/09 07:26:46;;;;;;;28.25;24.23;;;;;;;1.12;100.00;99543.63;5106074;28;20062;-66
2023/03/09 07:29:14;;;;;;;24.35;20.60;;;;;;;1.17;100.00;99557.13;5092751;28;20059;-65
2023/03/09 07:31:41;;;;;;;26.92;23.15;;;;;;;1.27;100.00;99546.63;5093428;28;20071;-66
2023/03/09 07:34:09;;;;;;;28.48;23.48;;;;;;;1.35;100.00;99552.63;5098610;28;20051;-66
2023/03/09 07:36:37;;;;;;;27.65;23.27;;;;;;;1.36;100.00;99554.28;5114935;28;20048;-66
2023/03/09 07:39:05;;;;;;;29.35;25.70;;;;;;;1.24;100.00;99560.50;5115660;28;20058;-64
2023/03/09 07:41:32;;;;;;;30.60;26.27;;;;;;;1.21;100.00;99560.16;5114038;27;20415;-64
2023/03/09 07:44:00;;;;;;;31.73;28.33;;;;;;;1.21;100.00;99560.97;5114280;28;20062;-67
2023/03/09 07:46:28;;;;;;;32.08;27.65;;;;;;;1.15;100.00;99556.56;5099619;28;20048;-64
2023/03/09 07:48:55;;;;;;;32.60;28.98;;;;;;;1.16;100.00;99562.75;5109824;28;20097;-65
2023/03/09 07:51:23;;;;;;;33.00;29.02;;;;;;;1.11;100.00;99568.81;5101961;28;20072;-62
2023/03/09 07:53:51;;;;;;;31.75;28.05;;;;;;;1.10;100.00;99572.53;5100288;27;20506;-64
2023/03/09 07:56:18;;;;;;;30.00;24.73;;;;;;;1.18;100.00;99563.31;5111373;27;20115;-66
2023/03/09 07:58:46;;;;;;;30.95;25.27;;;;;;;1.25;100.00;99566.66;5094477;28;20050;-65
2023/03/09 08:01:16;;;;;;;30.25;24.48;;;;;;;1.25;100.00;99572.88;5097835;28;20059;-65
2023/03/09 08:03:47;;;;;;;31.88;25.80;;;;;;;1.21;100.00;99566.34;5080132;28;20495;-65
2023/03/09 08:06:15;;;;;;;31.50;25.77;;;;;;;1.24;100.00;99573.09;5103575;27;20055;-65
2023/03/09 08:08:43;;;;;;;29.63;24.42;;;;;;;1.25;100.00;99586.28;5108495;28;20052;-64
2023/03/09 08:11:11;;;;;;;32.25;25.52;;;;;;;1.34;100.00;99592.09;5095616;28;20044;-66
2023/03/09 08:13:38;;;;;;;33.83;25.80;;;;;;;1.33;100.00;99597.72;5095368;28;20080;-65
2023/03/09 08:16:08;;;;;;;31.35;25.77;;;;;;;1.38;100.00;99590.56;5096476;28;20048;-66
2023/03/09 08:18:36;;;;;;;29.80;24.67;;;;;;;1.34;100.00;99593.97;5096680;28;20044;-66
2023/03/09 08:21:15;;;;;;;31.88;25.52;;;;;;;1.29;100.00;99597.34;5095596;28;20044;-66
2023/03/09 08:23:43;;;;;;;32.35;26.20;;;;;;;1.28;100.00;99596.53;5096347;28;20044;-66
2023/03/09 08:26:13;;;;;;;30.60;25.25;;;;;;;1.28;100.00;99607.28;5078542;28;20060;-65
2023/03/09 08:28:41;;;;;;;32.90;26.63;;;;;;;1.33;100.00;99613.81;5096840;28;20048;-64
2023/03/09 08:31:10;;;;;;;33.92;28.05;;;;;;;1.34;100.00;99629.66;5083546;28;20052;-65
2023/03/09 08:33:38;;;;;;;29.85;24.73;;;;;;;1.38;100.00;99627.31;5115864;28;20099;-64
2023/03/09 08:36:17;;;;;;;31.23;25.38;;;;;;;1.41;100.00;99632.22;5116996;28;20043;-65
2023/03/09 08:38:46;;;;;;;34.63;27.88;;;;;;;1.39;100.00;99629.75;5116725;28;20481;-65
2023/03/09 08:41:15;;;;;;;32.53;27.42;;;;;;;1.39;100.00;99629.75;5098486;28;20052;-65
2023/03/09 08:43:43;;;;;;;34.97;27.88;;;;;;;1.41;100.00;99632.22;5115280;28;20047;-65
2023/03/09 08:46:11;;;;;;;32.03;27.20;;;;;;;1.42;100.00;99641.88;5115012;28;20039;-65
2023/03/09 08:48:40;;;;;;;32.00;26.00;;;;;;;1.47;100.00;99639.31;5115267;28;20051;-65
2023/03/09 08:51:09;;;;;;;31.63;26.30;;;;;;;1.51;100.00;99643.16;5114560;28;20059;-65
2023/03/09 08:53:38;;;;;;;34.67;28.38;;;;;;;1.52;100.00;99636.75;5114792;28;20047;-64
2023/03/09 08:56:08;;;;;;;31.77;26.70;;;;;;;1.56;100.00;99635.19;5091927;28;20054;-65
2023/03/09 08:58:36;;;;;;;35.03;28.92;;;;;;;1.63;100.00;99651.16;5099102;28;20788;-65
2023/03/09 09:01:05;;;;;;;33.97;27.95;;;;;;;1.61;100.00;99642.53;5110424;28;20043;-65
2023/03/09 09:03:33;;;;;;;34.70;27.48;;;;;;;1.69;100.00;99637.63;5107460;28;20055;-66
2023/03/09 09:06:06;;;;;;;34.67;27.88;;;;;;;1.70;100.00;99633.88;5096698;28;20123;-65
2023/03/09 09:08:34;;;;;;;31.48;26.40;;;;;;;1.79;100.00;99625.44;5094695;28;20054;-65
2023/03/09 09:11:10;;;;;;;33.05;27.33;;;;;;;1.88;100.00;99634.75;5077757;28;20051;-65
2023/03/09 09:13:38;;;;;;;32.10;26.73;;;;;;;1.88;100.00;99649.00;5111662;27;20046;-65
2023/03/09 09:16:07;;;;;;;31.05;26.00;;;;;;;1.96;100.00;99655.84;5112368;27;20055;-64
2023/03/09 09:18:36;;;;;;;35.88;28.05;;;;;;;2.02;100.00;99673.72;5099541;28;20123;-64
2023/03/09 09:21:14;;;;;;;32.42;26.25;;;;;;;2.02;100.00;99689.81;5064071;28;20117;-63
2023/03/09 09:23:43;;;;;;;31.25;25.70;;;;;;;2.05;100.00;99683.97;5115777;28;20051;-64
2023/03/09 09:26:12;;;;;;;34.28;27.38;;;;;;;2.06;100.00;99690.94;5115028;28;20126;-64
2023/03/09 09:28:40;;;;;;;33.60;27.05;;;;;;;2.07;100.00;99695.28;5100461;27;20074;-64
2023/03/09 09:31:09;;;;;;;35.08;28.02;;;;;;;2.08;100.00;99704.97;5114015;27;20142;-63
2023/03/09 09:33:37;;;;;;;34.33;26.42;;;;;;;2.07;100.00;99697.97;5093947;28;20149;-65
2023/03/09 09:36:11;;;;;;;31.92;26.45;;;;;;;2.09;100.00;99687.81;5108493;28;20051;-65
2023/03/09 09:38:39;;;;;;;32.95;26.83;;;;;;;2.17;100.00;99693.84;5105509;28;20036;-62
2023/03/09 09:41:20;;;;;;;34.80;28.45;;;;;;;2.25;100.00;99688.06;5104782;28;20048;-62
2023/03/09 09:43:50;;;;;;;35.75;28.88;;;;;;;2.28;100.00;99679.53;5083187;28;20064;-65
2023/03/09 09:46:19;;;;;;;34.28;28.38;;;;;;;2.27;100.00;99672.53;5097183;28;20044;-65
2023/03/09 09:48:48;;;;;;;35.47;29.42;;;;;;;2.23;100.00;99672.19;5095029;28;20545;-64
2023/03/09 09:51:21;;;;;;;35.60;28.75;;;;;;;2.25;100.00;99671.97;5093758;28;20040;-64
2023/03/09 09:54:22;;;;;;;34.58;27.90;;;;;;;2.29;100.00;99670.41;5112021;28;20053;-65
2023/03/09 09:56:52;;;;;;;33.50;28.10;;;;;;;2.32;100.00;99678.81;5098616;27;20047;-64
2023/03/09 09:59:49;;;;;;;31.33;25.55;;;;;;;2.37;100.00;99693.41;5077376;28;20051;-63
2023/03/09 10:02:41;;;;;;;28.15;20.00;;;;;;;2.48;100.00;99711.34;5106040;28;20399;-64
2023/03/09 10:05:20;;;;;;;34.88;28.42;;;;;;;2.49;100.00;99708.41;5097097;28;20104;-64
2023/03/09 10:07:48;;;;;;;31.67;26.20;;;;;;;2.51;100.00;99717.03;5114372;28;20047;-64
2023/03/09 10:10:27;;;;;;;33.08;27.20;;;;;;;2.52;100.00;99715.97;5092025;28;20046;-65
2023/03/09 10:12:56;;;;;;;33.38;27.50;;;;;;;2.52;100.00;99710.59;5097172;28;20402;-65
2023/03/09 10:15:28;;;;;;;35.90;28.20;;;;;;;2.59;100.00;99701.56;5113245;28;20048;-65
2023/03/09 10:18:05;;;;;;;33.65;27.42;;;;;;;2.56;100.00;99714.44;5112902;28;20103;-64
2023/03/09 10:20:36;;;;;;;31.08;25.35;;;;;;;2.61;100.00;99711.03;5113485;28;20494;-63
2023/03/09 10:23:20;;;;;;;34.67;27.25;;;;;;;2.62;100.00;99706.44;5110866;27;20446;-64
2023/03/09 10:25:51;;;;;;;32.85;25.75;;;;;;;2.64;100.00;99709.72;5092850;28;20070;-63
2023/03/09 10:28:20;;;;;;;33.10;26.23;;;;;;;2.66;100.00;99710.28;5093215;28;20101;-64
2023/03/09 10:31:16;;;;;;;31.25;25.92;;;;;;;2.67;100.00;99719.97;5075836;28;20054;-64
2023/03/09 10:33:48;;;;;;;29.05;20.65;;;;;;;2.69;100.00;99712.50;5099559;28;20047;-65
2023/03/09 10:36:32;;;;;;;32.05;25.27;;;;;;;2.70;100.00;99708.75;5110905;28;20118;-64
2023/03/09 10:39:04;;;;;;;31.92;26.27;;;;;;;2.70;100.00;99706.06;5113547;28;20042;-65
2023/03/09 10:41:32;;;;;;;34.60;29.27;;;;;;;2.68;100.00;99695.53;5110345;27;20510;-65
2023/03/09 10:44:00;;;;;;;40.55;33.83;;;;;;;2.66;100.00;99691.47;5104552;28;20039;-65
2023/03/09 10:46:28;;;;;;;40.17;35.13;;;;;;;2.62;100.00;99691.16;5096309;28;20043;-63
2023/03/09 10:49:13;;;;;;;41.85;35.00;;;;;;;2.54;100.00;99705.78;5093738;28;20075;-63
2023/03/09 10:51:54;;;;;;;42.63;35.72;;;;;;;2.50;100.00;99710.03;5111685;28;20119;-63
2023/03/09 10:54:39;;;;;;;40.67;33.92;;;;;;;2.51;100.00;99711.66;5112366;28;20118;-65
2023/03/09 10:57:24;;;;;;;40.58;33.35;;;;;;;2.65;100.00;99706.81;5113178;27;20047;-65
2023/03/09 11:00:06;;;;;;;41.28;34.05;;;;;;;2.66;100.00;99710.28;5113361;28;20488;-63
2023/03/09 11:02:36;;;;;;;42.63;33.30;;;;;;;2.63;100.00;99716.97;5112530;28;20580;-64
2023/03/09 11:05:25;;;;;;;43.00;34.28;;;;;;;2.66;100.00;99716.47;5104762;28;20042;-64
2023/03/09 11:07:55;;;;;;;40.55;33.35;;;;;;;2.60;100.00;99716.63;5113130;28;20044;-65
2023/03/09 11:10:26;;;;;;;40.83;33.00;;;;;;;2.61;100.00;99715.59;5113045;28;20403;-64
2023/03/09 11:12:54;;;;;;;41.75;30.98;;;;;;;2.61;100.00;99718.28;5113993;28;20430;-63
2023/03/09 11:15:30;;;;;;;39.13;29.38;;;;;;;2.60;100.00;99713.94;5103979;28;20040;-64
2023/03/09 11:17:59;;;;;;;41.15;31.33;;;;;;;2.61;100.00;99699.47;5103401;28;20036;-62
2023/03/09 11:20:37;;;;;;;38.00;29.23;;;;;;;2.64;100.00;99704.34;5113665;28;20077;-63
2023/03/09 11:23:26;;;;;;;37.85;28.85;;;;;;;2.69;100.00;99707.13;5112607;28;20398;-63
2023/03/09 11:25:57;;;;;;;38.13;29.92;;;;;;;2.72;100.00;99702.06;5103746;28;20419;-65
2023/03/09 11:28:30;;;;;;;33.92;26.13;;;;;;;2.77;100.00;99704.84;5099378;28;20075;-64
2023/03/09 11:31:00;;;;;;;36.97;27.63;;;;;;;2.83;100.00;99704.94;5111952;28;20066;-62
2023/03/09 11:33:29;;;;;;;35.42;28.35;;;;;;;2.87;100.00;99706.06;5103255;28;20044;-63